Time;durP1;ratioP1;P1;durP2;ratioP2;P2;SDS_P1;SDS_P2;PMS_P1;PMS_P2;Temp;Humidity;BMP_temperature;BMP_pressure;BME280_temperature;BME280_humidity;BME280_pressure;Samples;Min_cycle;Max_cycle;Signal;HPM_P1;HPM_P2
2022/06/04 00:04:05;;;;;;;5.13;3.50;;;;;;;19.45;56.90;99874.44;10428517;28;20132;-77
2022/06/04 00:09:08;;;;;;;5.22;3.63;;;;;;;19.54;56.66;99870.06;10428265;28;20088;-78
2022/06/04 00:19:30;;;;;;;5.28;3.58;;;;;;;19.44;56.91;99876.25;10429644;28;20103;-78
2022/06/04 00:24:32;;;;;;;5.75;3.95;;;;;;;19.38;57.02;99883.97;10427939;28;20949;-78
2022/06/04 00:29:35;;;;;;;7.30;3.47;;;;;;;19.10;57.54;99872.53;10427854;28;20138;-78
2022/06/04 00:34:37;;;;;;;7.68;3.90;;;;;;;18.98;57.82;99876.34;10428551;28;20127;-78
2022/06/04 00:39:40;;;;;;;6.28;3.58;;;;;;;19.11;57.89;99876.03;10426798;28;20223;-78
2022/06/04 00:45:20;;;;;;;8.02;4.00;;;;;;;19.00;58.32;99882.34;10426038;28;20080;-78
2022/06/04 00:50:23;;;;;;;6.57;3.90;;;;;;;18.88;58.21;99864.09;10443545;28;20088;-78
2022/06/04 00:55:47;;;;;;;6.93;3.60;;;;;;;19.10;58.10;99883.16;10425949;28;20132;-78
2022/06/04 01:00:57;;;;;;;5.60;3.80;;;;;;;19.16;58.19;99892.31;10422067;28;20478;-78
2022/06/04 01:06:14;;;;;;;;;;;;;;;18.72;58.86;99904.47;10428365;28;20133;-77
2022/06/04 01:11:27;;;;;;;5.03;4.00;;;;;;;18.77;58.80;99907.50;10425709;28;19924;-77
2022/06/04 01:16:42;;;;;;;5.55;4.00;;;;;;;18.57;59.38;99916.50;10425489;28;20490;-78
2022/06/04 01:21:50;;;;;;;4.63;3.88;;;;;;;18.70;58.96;99917.03;10425116;28;20548;-78
2022/06/04 01:27:19;;;;;;;6.05;4.20;;;;;;;18.83;58.79;99912.22;10422879;28;20159;-77
2022/06/04 01:32:47;;;;;;;7.43;4.22;;;;;;;18.71;58.93;99917.88;10427449;28;20164;-77
2022/06/04 01:37:59;;;;;;;6.78;4.43;;;;;;;18.49;59.38;99911.91;10427229;28;20084;-78
2022/06/04 01:43:03;;;;;;;8.23;3.97;;;;;;;18.48;59.46;99912.88;10420506;28;20157;-78
2022/06/04 01:48:07;;;;;;;6.13;4.22;;;;;;;18.50;59.44;99910.09;10427156;28;20052;-78
2022/06/04 01:53:12;;;;;;;8.55;3.95;;;;;;;18.43;59.24;99919.59;10423980;28;20053;-78
2022/06/04 01:58:22;;;;;;;6.18;4.80;;;;;;;18.24;59.85;99915.13;10424005;28;20564;-78
2022/06/04 02:03:31;;;;;;;;;;;;;;;17.62;60.51;99910.22;10428413;28;20139;-78
2022/06/04 02:08:51;;;;;;;7.00;4.53;;;;;;;17.49;61.55;99911.44;10433385;28;19925;-78
2022/06/04 02:13:55;;;;;;;6.10;4.70;;;;;;;17.51;61.37;99915.63;10432406;28;20088;-78
2022/06/04 02:18:59;;;;;;;8.25;4.95;;;;;;;17.62;61.33;99915.50;10434392;28;20107;-78
2022/06/04 02:24:03;;;;;;;5.53;4.75;;;;;;;17.62;60.97;99909.38;10432705;28;21142;-78
2022/06/04 02:29:05;;;;;;;7.78;4.90;;;;;;;17.60;61.20;99908.69;10434403;28;20106;-78
2022/06/04 02:34:33;;;;;;;7.22;5.20;;;;;;;17.38;61.97;99899.19;10434552;28;20049;-78
2022/06/04 02:39:38;;;;;;;8.18;5.47;;;;;;;17.14;62.03;99903.91;10434432;28;20158;-78
2022/06/04 02:44:50;;;;;;;8.32;6.78;;;;;;;16.88;63.29;99895.63;10435182;28;20073;-78
2022/06/04 02:50:05;;;;;;;6.43;5.32;;;;;;;16.91;63.19;99891.88;10436333;28;20065;-79
2022/06/04 02:55:12;;;;;;;8.48;6.20;;;;;;;17.04;62.99;99890.69;10452157;28;20128;-79
2022/06/04 03:00:18;;;;;;;6.97;5.45;;;;;;;17.10;62.83;99884.00;10433098;28;20084;-80
2022/06/04 03:05:26;;;;;;;8.98;6.75;;;;;;;16.94;62.71;99881.03;10431052;28;20057;-79
2022/06/04 03:10:36;;;;;;;7.75;5.80;;;;;;;16.93;62.88;99888.16;10436862;28;20568;-79
2022/06/04 03:15:37;;;;;;;9.03;6.17;;;;;;;16.76;62.66;99882.63;10435698;28;21146;-80
2022/06/04 03:20:41;;;;;;;7.28;5.53;;;;;;;16.65;63.02;99882.72;10438589;28;20079;-79
2022/06/04 03:25:49;;;;;;;7.93;5.43;;;;;;;16.79;62.75;99893.75;10434939;28;20110;-79
2022/06/04 03:30:50;;;;;;;7.65;5.38;;;;;;;16.83;62.01;99889.88;10433410;28;20889;-79
2022/06/04 03:35:52;;;;;;;7.10;5.13;;;;;;;16.81;61.96;99893.66;10436123;28;20053;-79
2022/06/04 03:40:55;;;;;;;8.00;5.38;;;;;;;16.82;62.14;99895.31;10437793;28;20138;-79
2022/06/04 03:45:57;;;;;;;7.13;5.65;;;;;;;16.82;61.75;99898.78;10435736;28;20159;-80
2022/06/04 03:51:00;;;;;;;6.90;6.20;;;;;;;16.56;62.32;99907.25;10437103;28;20110;-80
2022/06/04 03:56:02;;;;;;;7.07;5.32;;;;;;;16.63;62.59;99911.88;10437418;28;20122;-79
2022/06/04 04:01:18;;;;;;;9.48;5.53;;;;;;;16.82;62.58;99919.94;10435029;28;20648;-79
2022/06/04 04:06:24;;;;;;;9.10;6.80;;;;;;;16.84;62.17;99923.28;10450872;28;20127;-79
2022/06/04 04:11:27;;;;;;;7.53;5.45;;;;;;;17.02;62.10;99912.91;10434764;28;20109;-80
2022/06/04 04:16:29;;;;;;;5.93;4.80;;;;;;;17.33;61.19;99929.59;10430803;28;20064;-79
2022/06/04 04:21:40;;;;;;;6.57;5.32;;;;;;;17.54;60.77;99928.59;10434215;28;20144;-79
2022/06/04 04:26:42;;;;;;;6.78;4.97;;;;;;;17.74;60.05;99937.38;10436608;28;20894;-79
2022/06/04 04:31:45;;;;;;;7.30;5.38;;;;;;;17.91;59.33;99949.09;10435508;28;20601;-79
2022/06/04 04:36:47;;;;;;;9.63;5.40;;;;;;;17.93;59.32;99955.09;10429639;28;20084;-80
2022/06/04 04:41:54;;;;;;;6.53;4.57;;;;;;;17.96;58.65;99957.44;10432586;28;20087;-79
2022/06/04 04:46:58;;;;;;;8.98;5.63;;;;;;;18.19;58.14;99961.50;10439585;28;20104;-80
2022/06/04 04:52:03;;;;;;;6.20;5.60;;;;;;;18.16;58.16;99953.84;10434919;28;20570;-80
2022/06/04 04:57:06;;;;;;;6.55;4.72;;;;;;;18.42;58.11;99966.41;10436166;28;20076;-80
2022/06/04 05:02:08;;;;;;;6.45;5.13;;;;;;;19.40;55.83;99961.56;10431947;28;20072;-80
2022/06/04 05:07:12;;;;;;;7.00;4.70;;;;;;;20.30;53.97;99959.75;10434932;28;20132;-80
2022/06/04 05:12:13;;;;;;;5.05;3.88;;;;;;;22.07;50.40;99971.41;10432428;28;20064;-80
2022/06/04 05:17:16;;;;;;;6.15;4.30;;;;;;;22.91;48.05;99973.78;10432298;28;20079;-80
2022/06/04 05:22:23;;;;;;;7.13;4.30;;;;;;;22.63;47.94;99987.47;10433880;28;20073;-79
2022/06/04 05:27:25;;;;;;;6.00;4.35;;;;;;;22.10;48.81;100003.06;10433197;28;20127;-80
2022/06/04 05:32:45;;;;;;;5.30;3.90;;;;;;;21.87;49.08;100009.97;10432502;28;20084;-80
2022/06/04 05:37:46;;;;;;;8.50;4.93;;;;;;;21.44;50.46;100010.09;10430438;28;20053;-80
2022/06/04 05:42:48;;;;;;;7.13;4.50;;;;;;;21.71;50.24;100017.88;10429444;28;20144;-80
2022/06/04 05:47:50;;;;;;;6.22;4.53;;;;;;;22.10;49.60;100012.88;10428695;28;20111;-81
2022/06/04 05:58:54;;;;;;;7.68;4.38;;;;;;;22.42;49.20;100012.94;10428533;28;20106;-81
2022/06/04 06:03:57;;;;;;;5.95;4.53;;;;;;;22.56;48.64;100013.09;10430558;28;20138;-80
2022/06/04 06:09:05;;;;;;;6.05;4.28;;;;;;;22.37;48.59;100016.09;10432766;28;20075;-80
2022/06/04 06:14:08;;;;;;;6.07;4.80;;;;;;;22.28;48.83;100011.75;10431760;28;20045;-80
2022/06/04 06:19:13;;;;;;;5.65;4.50;;;;;;;22.16;49.31;99999.75;10431016;28;20071;-80
2022/06/04 06:24:16;;;;;;;6.95;4.95;;;;;;;22.19;48.94;100006.59;10427318;28;20079;-78
2022/06/04 06:29:20;;;;;;;6.70;4.53;;;;;;;22.54;48.75;100001.78;10423767;28;20079;-79
2022/06/04 06:34:23;;;;;;;5.20;4.38;;;;;;;22.48;48.10;99991.78;10424930;28;20084;-78
2022/06/04 06:39:25;;;;;;;9.35;5.05;;;;;;;22.13;48.60;99996.59;10424220;28;20829;-78
2022/06/04 06:44:28;;;;;;;7.10;4.50;;;;;;;22.23;48.49;99992.75;10431466;28;20172;-77
2022/06/04 06:49:30;;;;;;;7.05;4.70;;;;;;;22.51;47.90;99988.81;10434646;28;20114;-79
2022/06/04 06:54:35;;;;;;;8.98;4.72;;;;;;;22.83;47.34;99981.81;10436360;28;20138;-78
2022/06/04 06:59:43;;;;;;;7.00;4.57;;;;;;;23.14;46.36;99985.41;10435012;28;20059;-79
2022/06/04 07:04:45;;;;;;;5.53;4.20;;;;;;;23.76;45.29;99994.41;10432448;28;20052;-78
2022/06/04 07:09:47;;;;;;;6.00;4.20;;;;;;;23.77;45.43;100002.25;10433219;28;20138;-79
2022/06/04 07:14:49;;;;;;;7.82;4.22;;;;;;;23.42;45.47;100008.88;10433093;28;20107;-78
2022/06/04 07:19:50;;;;;;;6.72;4.30;;;;;;;23.16;46.25;100008.28;10428550;28;20106;-78
2022/06/04 07:24:55;;;;;;;7.32;4.07;;;;;;;22.72;47.01;99998.13;10431107;28;20057;-78
2022/06/04 07:29:56;;;;;;;6.90;4.10;;;;;;;23.03;46.82;100001.78;10430248;28;20071;-78
2022/06/04 07:34:58;;;;;;;5.20;3.65;;;;;;;23.57;46.01;100011.69;10430501;28;20076;-78
2022/06/04 07:40:00;;;;;;;6.53;4.00;;;;;;;23.70;45.37;100011.94;10430328;28;21068;-78
2022/06/04 07:45:11;;;;;;;5.93;3.90;;;;;;;23.32;46.21;100023.41;10431551;28;20052;-79
2022/06/04 07:50:13;;;;;;;5.00;3.50;;;;;;;23.33;46.15;100017.06;10428201;28;20072;-79
2022/06/04 07:55:15;;;;;;;5.95;3.70;;;;;;;23.54;45.29;100016.50;10430378;28;20510;-78
2022/06/04 08:00:19;;;;;;;4.85;4.03;;;;;;;23.15;45.95;100011.09;10428481;28;20053;-77
2022/06/04 08:05:21;;;;;;;5.57;3.40;;;;;;;23.30;46.14;100017.41;10426798;28;20179;-77
2022/06/04 08:10:23;;;;;;;7.75;3.40;;;;;;;23.09;46.22;100019.75;10426487;28;20053;-77
2022/06/04 08:15:24;;;;;;;8.48;3.45;;;;;;;23.10;46.62;100022.28;10424611;28;20183;-77
2022/06/04 08:20:27;;;;;;;5.00;3.10;;;;;;;23.23;46.31;100030.59;10423701;28;20510;-78
2022/06/04 08:25:28;;;;;;;6.45;3.30;;;;;;;23.25;46.02;100030.41;10428606;28;20110;-78
2022/06/04 08:30:30;;;;;;;4.18;2.90;;;;;;;23.59;45.92;100035.53;10424145;28;20512;-77
2022/06/04 08:35:32;;;;;;;4.18;3.20;;;;;;;24.08;44.68;100045.84;10428767;28;20550;-77
2022/06/04 08:40:47;;;;;;;6.03;3.47;;;;;;;24.33;43.67;100054.53;10427544;28;20071;-77
2022/06/04 08:45:48;;;;;;;7.85;3.25;;;;;;;25.00;43.06;100058.25;10427326;28;20149;-77
2022/06/04 08:50:57;;;;;;;5.17;3.20;;;;;;;25.06;42.88;100050.31;10427141;28;20052;-78
2022/06/04 09:01:37;;;;;;;4.80;2.85;;;;;;;25.20;42.13;100055.91;10427273;28;20080;-78
2022/06/04 09:06:54;;;;;;;6.85;3.20;;;;;;;24.93;42.49;100057.31;10431776;28;20084;-78
2022/06/04 09:12:42;;;;;;;7.68;3.15;;;;;;;25.10;41.98;100048.13;10428285;28;20088;-78
2022/06/04 09:17:48;;;;;;;5.80;2.85;;;;;;;25.44;41.64;100051.16;10386305;28;20102;-78
2022/06/04 09:22:51;;;;;;;5.57;3.00;;;;;;;25.40;41.75;100052.53;10425172;28;20052;-78
2022/06/04 09:28:06;;;;;;;4.68;2.80;;;;;;;25.37;42.02;100058.25;10426142;28;20146;-78
2022/06/04 09:33:45;;;;;;;5.93;2.83;;;;;;;25.66;41.16;100068.13;10422700;28;20548;-78
2022/06/04 09:38:56;;;;;;;4.78;2.83;;;;;;;25.70;41.01;100072.94;10425626;28;20449;-78
2022/06/04 09:44:05;;;;;;;5.97;3.30;;;;;;;25.47;41.56;100074.03;10419085;28;20055;-77
2022/06/04 09:49:20;;;;;;;4.28;3.10;;;;;;;25.44;41.65;100075.25;10419414;28;20778;-78
2022/06/04 09:54:31;;;;;;;5.78;2.90;;;;;;;25.52;41.57;100083.22;10440871;28;20070;-78
2022/06/04 09:59:34;;;;;;;5.72;3.17;;;;;;;25.46;42.16;100075.91;10426779;28;20146;-78
2022/06/04 10:04:40;;;;;;;6.25;2.90;;;;;;;25.49;42.09;100083.56;10420722;28;20586;-79
2022/06/04 10:09:58;;;;;;;3.88;2.70;;;;;;;26.03;40.91;100077.94;10423253;28;20049;-79
2022/06/04 10:15:00;;;;;;;4.72;2.63;;;;;;;27.22;38.79;100074.44;10425034;28;20100;-80
2022/06/04 10:20:03;;;;;;;5.55;3.10;;;;;;;26.74;38.50;100075.25;10434666;28;20785;-79
2022/06/04 10:25:22;;;;;;;4.68;2.65;;;;;;;27.85;36.04;100076.13;10432385;28;20502;-79
2022/06/04 10:36:55;;;;;;;7.40;2.58;;;;;;;27.22;37.88;100069.09;10427232;28;20045;-78
2022/06/04 10:42:15;;;;;;;5.53;2.65;;;;;;;26.85;38.83;100065.88;10432322;28;20135;-79
2022/06/04 10:47:26;;;;;;;4.35;2.47;;;;;;;26.45;38.69;100075.31;10428447;28;20057;-78
2022/06/04 10:52:55;;;;;;;3.50;2.50;;;;;;;26.15;37.84;100073.75;10431320;28;20072;-78
2022/06/04 10:58:12;;;;;;;3.63;2.30;;;;;;;26.23;38.19;100071.78;10425917;28;20080;-78
2022/06/04 11:03:33;;;;;;;4.50;2.35;;;;;;;26.24;37.97;100062.72;10436271;28;20053;-79
2022/06/04 11:08:58;;;;;;;5.20;2.28;;;;;;;25.93;38.19;100062.13;10439171;28;20084;-79
2022/06/04 11:14:11;;;;;;;2.92;1.98;;;;;;;26.07;37.59;100055.09;10434781;28;20076;-78
2022/06/04 11:19:19;;;;;;;4.40;2.05;;;;;;;25.96;37.89;100058.28;10432992;28;20588;-78
2022/06/04 11:24:30;;;;;;;4.97;2.22;;;;;;;26.02;36.86;100046.81;10432004;28;20580;-79
2022/06/04 11:29:31;;;;;;;5.53;2.00;;;;;;;25.86;37.75;100058.50;10429375;28;20076;-79
2022/06/04 11:35:11;;;;;;;3.85;2.10;;;;;;;25.91;36.95;100056.13;10434425;28;20465;-79
2022/06/04 11:40:28;;;;;;;6.47;2.17;;;;;;;26.07;38.25;100053.25;10432679;28;20056;-79
2022/06/04 11:45:36;;;;;;;5.25;2.00;;;;;;;26.17;37.34;100055.63;10434870;28;20167;-79
2022/06/04 11:50:51;;;;;;;4.15;1.88;;;;;;;26.27;36.31;100053.47;10433737;28;20156;-79
2022/06/04 11:56:05;;;;;;;3.30;1.80;;;;;;;26.17;35.17;100044.91;10435289;28;20068;-79
2022/06/04 12:01:15;;;;;;;4.57;2.13;;;;;;;26.14;36.79;100056.03;10432473;28;20136;-79
2022/06/04 12:06:43;;;;;;;4.70;1.90;;;;;;;26.20;36.75;100045.34;10447363;28;20169;-79
2022/06/04 12:12:01;;;;;;;4.22;1.73;;;;;;;26.71;34.90;100046.09;10433229;28;20076;-79
2022/06/04 12:17:20;;;;;;;3.75;1.90;;;;;;;26.66;35.68;100038.66;10434541;28;20613;-79
2022/06/04 12:27:58;;;;;;;3.38;1.83;;;;;;;26.60;35.62;100030.53;10433541;28;20102;-78
2022/06/04 12:33:05;;;;;;;3.25;1.90;;;;;;;26.65;35.82;100030.78;10432552;28;20130;-79
2022/06/04 12:38:21;;;;;;;5.38;2.10;;;;;;;26.03;36.39;100032.38;10434745;28;20077;-79
2022/06/04 12:43:33;;;;;;;3.85;1.80;;;;;;;26.24;36.02;100032.41;10432742;28;20087;-79
2022/06/04 12:48:54;;;;;;;5.40;1.80;;;;;;;26.16;35.60;100037.91;10430004;28;20099;-77
2022/06/04 12:54:05;;;;;;;3.92;1.95;;;;;;;26.56;35.97;100024.75;10428971;28;20111;-78
2022/06/04 12:59:44;;;;;;;3.15;1.60;;;;;;;26.55;35.59;100019.50;10421956;28;20097;-78
2022/06/04 13:04:45;;;;;;;4.15;1.90;;;;;;;26.87;35.60;100027.09;10429593;28;20064;-78
2022/06/04 13:09:47;;;;;;;4.10;1.80;;;;;;;26.34;36.05;100039.13;10422258;28;20107;-78
2022/06/04 13:15:07;;;;;;;3.15;1.90;;;;;;;26.77;35.46;100026.59;10430205;28;20052;-78
2022/06/04 13:20:24;;;;;;;3.63;1.73;;;;;;;27.20;34.65;100041.59;10431670;28;20049;-78
2022/06/04 13:25:54;;;;;;;4.72;1.80;;;;;;;26.74;34.71;100036.84;10428995;28;20140;-78
2022/06/04 13:30:56;;;;;;;3.10;2.00;;;;;;;26.90;34.02;100032.03;10441828;28;20114;-78
2022/06/04 13:36:02;;;;;;;4.22;1.98;;;;;;;27.35;33.92;100026.22;10429990;28;20080;-78
2022/06/04 13:41:08;;;;;;;6.50;2.00;;;;;;;27.23;34.26;100024.28;10428548;28;20138;-78
2022/06/04 13:46:23;;;;;;;2.63;1.70;;;;;;;26.88;34.69;100034.09;10429310;28;20572;-78
2022/06/04 13:51:28;;;;;;;3.83;1.90;;;;;;;26.71;35.57;100042.63;10425300;28;20056;-78
2022/06/04 13:56:43;;;;;;;2.95;1.80;;;;;;;26.66;35.30;100035.13;10423980;28;20140;-78
2022/06/04 14:01:46;;;;;;;4.43;2.00;;;;;;;26.99;34.56;100043.47;10428278;28;20141;-79
2022/06/04 14:06:49;;;;;;;2.80;1.80;;;;;;;27.64;33.26;100040.44;10429759;28;20095;-79
2022/06/04 14:12:13;;;;;;;4.22;1.80;;;;;;;27.72;33.09;100027.69;10422762;28;20088;-79
2022/06/04 14:17:36;;;;;;;4.10;2.05;;;;;;;27.72;32.33;100027.69;10428699;28;21033;-79
2022/06/04 14:29:42;;;;;;;5.03;2.00;;;;;;;28.02;32.62;100022.84;10425900;28;20044;-79
2022/06/04 14:34:46;;;;;;;4.70;2.33;;;;;;;27.88;33.12;100026.50;10429388;28;20135;-79
2022/06/04 14:39:49;;;;;;;3.17;1.80;;;;;;;27.87;33.35;100024.88;10424996;28;20952;-79
2022/06/04 14:45:06;;;;;;;3.63;1.90;;;;;;;27.72;33.34;100026.81;10425065;28;20149;-78
2022/06/04 14:50:32;;;;;;;4.70;1.90;;;;;;;27.33;33.96;100024.75;10429741;28;20126;-79
2022/06/04 14:56:11;;;;;;;3.75;1.88;;;;;;;27.34;34.20;100026.41;10429645;28;20114;-78
2022/06/04 15:01:35;;;;;;;4.37;2.00;;;;;;;27.13;33.64;100023.75;10429444;28;20057;-79
2022/06/04 15:06:50;;;;;;;3.30;1.95;;;;;;;26.74;34.75;100018.91;10435033;28;20756;-80
2022/06/04 15:12:25;;;;;;;4.45;2.00;;;;;;;26.80;34.10;100010.09;10434876;28;20045;-78
2022/06/04 15:17:43;;;;;;;5.70;2.10;;;;;;;26.94;34.20;100008.31;10432277;28;20187;-78
2022/06/04 15:23:17;;;;;;;3.53;1.98;;;;;;;27.00;33.47;100000.31;10436583;28;20114;-80
2022/06/04 15:33:56;;;;;;;3.92;2.00;;;;;;;27.38;34.09;99993.56;10436136;28;20049;-79
2022/06/04 15:39:35;;;;;;;3.88;2.08;;;;;;;27.38;34.25;99992.75;10433314;28;20056;-78
2022/06/04 15:45:02;;;;;;;5.20;2.15;;;;;;;26.84;34.04;99989.88;10431881;28;20123;-78
2022/06/04 15:55:35;;;;;;;3.58;1.80;;;;;;;26.36;35.03;99996.03;10432570;28;20142;-79
2022/06/04 16:00:44;;;;;;;3.25;1.98;;;;;;;26.73;34.52;99998.44;10430544;28;20045;-78
2022/06/04 16:05:55;;;;;;;6.28;2.10;;;;;;;26.66;32.95;99986.84;10426014;28;20084;-78
2022/06/04 16:11:13;;;;;;;4.18;2.03;;;;;;;26.84;34.31;99992.56;10428563;28;20057;-78
2022/06/04 16:16:25;;;;;;;5.07;2.10;;;;;;;26.96;34.02;99998.22;10424945;28;20049;-78
2022/06/04 16:21:38;;;;;;;4.00;1.90;;;;;;;26.99;33.78;99987.09;10428289;28;20379;-78
2022/06/04 16:26:51;;;;;;;3.40;1.90;;;;;;;27.01;33.55;99975.16;10430500;28;20110;-78
2022/06/04 16:32:06;;;;;;;3.15;1.77;;;;;;;26.95;33.78;99965.19;10431812;28;20501;-78
2022/06/04 16:37:46;;;;;;;4.43;2.00;;;;;;;26.69;33.78;99970.34;10431556;28;20546;-78
2022/06/04 16:42:53;;;;;;;3.97;1.85;;;;;;;26.80;33.91;99969.00;10428557;28;20103;-78
2022/06/04 16:48:04;;;;;;;4.28;1.90;;;;;;;26.87;33.45;99959.16;10417334;28;20111;-78
2022/06/04 16:53:06;;;;;;;5.60;2.00;;;;;;;26.66;33.58;99965.38;10431415;28;20110;-78
2022/06/04 16:58:09;;;;;;;4.47;1.77;;;;;;;26.83;33.67;99976.66;10430313;28;20887;-78
2022/06/04 17:03:36;;;;;;;3.65;1.92;;;;;;;26.78;33.83;99973.72;10430860;28;20134;-79
2022/06/04 17:09:15;;;;;;;5.53;1.80;;;;;;;26.91;34.17;99976.53;10429207;28;20156;-77
2022/06/04 17:14:29;;;;;;;4.82;2.30;;;;;;;27.00;33.91;99973.47;10422343;28;20092;-78
2022/06/04 17:19:49;;;;;;;4.03;2.28;;;;;;;26.80;34.39;99972.50;10426545;28;20135;-77
2022/06/04 17:25:11;;;;;;;3.80;2.17;;;;;;;26.79;34.66;99976.22;10432202;28;20117;-77
2022/06/04 17:30:22;;;;;;;4.85;2.00;;;;;;;26.94;34.65;99979.63;10421731;28;20076;-77
2022/06/04 17:35:49;;;;;;;4.38;2.13;;;;;;;26.62;35.00;99972.16;10429682;28;20060;-77
2022/06/04 17:41:01;;;;;;;5.07;2.30;;;;;;;26.63;34.92;99979.16;10425605;28;20049;-78
2022/06/04 17:46:03;;;;;;;5.38;2.10;;;;;;;26.60;35.39;99976.88;10419190;28;20076;-78
2022/06/04 17:51:05;;;;;;;3.17;2.00;;;;;;;26.54;35.40;99993.72;10417088;28;20061;-78
2022/06/04 17:56:08;;;;;;;4.18;2.40;;;;;;;26.30;35.78;99986.06;10413297;28;20167;-78
2022/06/04 18:01:13;;;;;;;4.80;2.30;;;;;;;26.24;35.41;99989.53;10413043;28;20104;-78
2022/06/04 18:06:15;;;;;;;4.28;2.10;;;;;;;26.14;35.81;99983.66;10416366;28;20057;-78
2022/06/04 18:11:16;;;;;;;3.75;2.00;;;;;;;26.01;35.79;99983.47;10418716;28;20079;-78
2022/06/04 18:16:19;;;;;;;3.83;2.10;;;;;;;25.56;36.25;99982.72;10412363;28;20540;-78
2022/06/04 18:21:22;;;;;;;4.55;2.28;;;;;;;25.44;36.57;99994.91;10418357;28;20147;-77
2022/06/04 18:26:24;;;;;;;5.50;2.42;;;;;;;25.40;36.53;100001.66;10423630;28;20406;-78
2022/06/04 18:31:27;;;;;;;3.15;2.03;;;;;;;25.34;37.11;99991.69;10428890;28;20052;-77
2022/06/04 18:36:37;;;;;;;4.50;2.43;;;;;;;25.10;37.25;99992.75;10429488;28;20053;-78
2022/06/04 18:41:40;;;;;;;4.80;2.38;;;;;;;25.01;37.87;100001.03;10432220;28;20422;-78
2022/06/04 18:57:25;;;;;;;3.53;2.47;;;;;;;24.59;38.80;100012.25;10433606;28;20049;-78
2022/06/04 19:02:27;;;;;;;3.90;2.40;;;;;;;24.27;39.71;100021.34;10434621;28;20056;-77
2022/06/04 19:18:10;;;;;;;4.75;2.58;;;;;;;23.90;40.38;100007.03;10432519;28;20126;-78
2022/06/04 19:28:33;;;;;;;7.68;2.47;;;;;;;23.64;41.42;100017.97;10438642;28;20098;-78
2022/06/04 19:34:06;;;;;;;5.97;3.10;;;;;;;23.39;42.08;100024.38;10439343;28;20074;-78
2022/06/04 19:39:08;;;;;;;6.03;2.90;;;;;;;23.28;42.19;100030.06;10432786;28;20055;-78
2022/06/04 19:44:23;;;;;;;5.90;3.10;;;;;;;23.12;42.40;100046.13;10434846;28;20131;-78
2022/06/04 19:49:34;;;;;;;5.38;2.92;;;;;;;22.91;43.45;100046.63;10433121;28;20061;-78
2022/06/04 19:59:57;;;;;;;6.35;2.95;;;;;;;22.47;44.34;100055.94;10432393;28;20053;-78
2022/06/04 20:04:59;;;;;;;7.10;3.47;;;;;;;22.28;44.53;100049.06;10433239;28;20139;-78
2022/06/04 20:10:02;;;;;;;4.30;3.05;;;;;;;22.18;44.84;100050.19;10430296;28;20152;-77
2022/06/04 20:15:08;;;;;;;4.07;2.97;;;;;;;22.01;45.16;100056.44;10427340;28;20099;-77
2022/06/04 20:20:15;;;;;;;3.90;2.70;;;;;;;22.07;45.23;100056.66;10430917;28;20365;-77
2022/06/04 20:25:17;;;;;;;5.75;3.03;;;;;;;22.03;45.77;100062.44;10429599;28;20134;-78
2022/06/04 20:30:19;;;;;;;5.47;3.40;;;;;;;21.90;46.34;100065.56;10430360;28;20543;-78
2022/06/04 20:35:22;;;;;;;4.57;3.50;;;;;;;21.58;47.04;100060.06;10430859;28;20556;-78
2022/06/04 20:40:24;;;;;;;8.35;3.45;;;;;;;21.43;46.92;100065.16;10429876;28;20498;-78
2022/06/04 20:45:26;;;;;;;4.72;3.00;;;;;;;21.39;47.11;100066.47;10429439;28;20057;-78
2022/06/04 20:50:30;;;;;;;8.73;3.72;;;;;;;21.30;48.02;100070.03;10430734;28;20053;-78
2022/06/04 20:55:31;;;;;;;5.38;3.70;;;;;;;21.10;48.46;100065.91;10431372;28;20169;-78
2022/06/04 21:00:34;;;;;;;5.15;4.22;;;;;;;20.89;48.81;100068.91;10430542;28;20442;-78
2022/06/04 21:05:37;;;;;;;4.57;3.53;;;;;;;20.72;49.20;100072.41;10431148;28;20525;-78
2022/06/04 21:10:40;;;;;;;6.55;3.55;;;;;;;20.57;49.80;100060.63;10433629;28;20048;-78
2022/06/04 21:15:42;;;;;;;5.05;3.85;;;;;;;20.46;50.18;100055.53;10430277;28;20127;-77
2022/06/04 21:20:44;;;;;;;6.20;3.67;;;;;;;20.42;50.43;100054.16;10439995;28;20045;-77
2022/06/04 21:25:46;;;;;;;5.22;4.30;;;;;;;20.34;50.30;100054.06;10436887;28;20135;-77
2022/06/04 21:30:49;;;;;;;7.50;4.43;;;;;;;20.29;50.52;100056.38;10436349;28;20051;-77
2022/06/04 21:41:12;;;;;;;5.97;4.10;;;;;;;20.14;50.42;100065.81;10436677;28;20122;-78
2022/06/04 21:46:14;;;;;;;7.10;4.20;;;;;;;20.03;50.58;100064.19;10433654;28;20498;-77
2022/06/04 21:51:16;;;;;;;5.68;4.13;;;;;;;20.13;50.54;100061.50;10438425;28;20487;-77
2022/06/04 21:56:18;;;;;;;5.75;3.97;;;;;;;20.11;50.60;100068.78;10439868;28;20118;-78
2022/06/04 22:01:23;;;;;;;6.32;4.40;;;;;;;19.90;50.81;100060.22;10439967;28;20049;-78
2022/06/04 22:06:26;;;;;;;5.85;4.63;;;;;;;19.70;51.10;100061.28;10428906;28;20509;-78
2022/06/04 22:11:28;;;;;;;5.55;4.53;;;;;;;19.48;51.44;100052.69;10429371;28;20499;-78
2022/06/04 22:16:31;;;;;;;6.50;4.43;;;;;;;19.50;51.72;100059.69;10426628;28;20153;-78
2022/06/04 22:21:33;;;;;;;5.20;4.10;;;;;;;19.41;51.96;100056.94;10428288;28;20057;-78
2022/06/04 22:26:35;;;;;;;6.22;4.30;;;;;;;19.42;51.75;100057.75;10427075;28;20576;-77
2022/06/04 22:31:36;;;;;;;6.90;4.57;;;;;;;19.40;51.78;100063.19;10430351;28;20103;-78
2022/06/04 22:36:38;;;;;;;7.63;4.30;;;;;;;19.28;52.12;100056.41;10425479;28;20080;-78
2022/06/04 22:41:40;;;;;;;7.50;4.63;;;;;;;19.34;52.31;100061.13;10428396;28;20076;-78
2022/06/04 22:46:42;;;;;;;6.03;5.00;;;;;;;19.27;52.54;100048.59;10425540;28;20122;-78
2022/06/04 22:51:53;;;;;;;5.97;4.30;;;;;;;19.20;52.63;100047.47;10428965;28;20072;-78
2022/06/04 22:56:57;;;;;;;6.10;4.55;;;;;;;19.11;52.77;100046.56;10428809;28;20057;-78
2022/06/04 23:02:00;;;;;;;6.05;4.65;;;;;;;19.04;52.86;100037.47;10428501;28;20554;-78
2022/06/04 23:07:04;;;;;;;7.22;4.60;;;;;;;19.03;52.88;100033.16;10427623;28;20084;-78
2022/06/04 23:23:06;;;;;;;5.10;4.18;;;;;;;18.88;53.21;100028.41;10390906;28;20089;-78
2022/06/04 23:28:11;;;;;;;5.65;4.40;;;;;;;18.88;53.11;100039.84;10434247;28;20052;-78
2022/06/04 23:33:13;;;;;;;5.82;4.30;;;;;;;19.00;52.77;100043.16;10434438;28;20080;-78
2022/06/04 23:38:16;;;;;;;5.70;4.72;;;;;;;18.94;53.28;100041.94;10434624;28;20048;-78
2022/06/04 23:43:19;;;;;;;6.70;4.63;;;;;;;18.83;53.59;100036.78;10432698;28;20135;-78
2022/06/04 23:48:21;;;;;;;5.63;4.68;;;;;;;18.62;53.91;100028.16;10430036;28;20064;-78
2022/06/04 23:53:24;;;;;;;5.63;4.90;;;;;;;18.58;53.73;100021.47;10431119;28;20037;-78
2022/06/04 23:58:26;;;;;;;6.30;4.55;;;;;;;18.50;53.70;100016.03;10433585;28;20118;-78
